Wilmington Island, Georgia
Current Conditions -  °F | °C
As of 6:13 PM on Sunday 21 Dec 2014 (Local Time) from KSVN Reporting Station
Light Rain Light Rain  
Wind Chill: 45°   Ceiling: 1000
Heat Index: 48°   Visibility: 9mi
Dew Point: 46°   Wind: 8mph
Humidity: 93%   Direction: 40°NE
Pressure: 30.09"   Gusts: NA
Location:  31.996°N, 80.9671°W
Report Text: KSVN 212313Z AUTO 04007KT 9SM -RA BKN010 OVC017 09/08 A3009 RMK AO2 RAB2309 CIG 008V015
Loading
Personal Weather Stations






























Interactive Weather Map New forecast layout! Learn more

10-Day Weather Forecast

Advertisements
Track Severe Weather on mobile